Time;durP1;ratioP1;P1;durP2;ratioP2;P2;SDS_P1;SDS_P2;PMS_P1;PMS_P2;Temp;Humidity;BMP_temperature;BMP_pressure;BME280_temperature;BME280_humidity;BME280_pressure;Samples;Min_cycle;Max_cycle;Signal;HPM_P1;HPM_P2
2022/02/06 00:00:08;;;;;;;3.07;1.47;;;5.00;99.90;;;;;;4975401;28;20184;-81
2022/02/06 00:02:37;;;;;;;2.07;1.10;;;5.00;99.90;;;;;;4992219;28;20199;-77
2022/02/06 00:05:03;;;;;;;2.87;1.63;;;5.00;99.90;;;;;;4991005;28;20180;-76
2022/02/06 00:07:30;;;;;;;1.10;0.63;;;4.90;99.90;;;;;;4991051;28;20209;-78
2022/02/06 00:09:55;;;;;;;1.70;1.00;;;4.90;99.90;;;;;;4974589;28;20188;-78
2022/02/06 00:12:21;;;;;;;1.90;0.97;;;4.90;99.90;;;;;;4990703;28;20236;-78
2022/02/06 00:14:46;;;;;;;3.67;1.00;;;4.80;99.90;;;;;;4974087;28;20219;-78
2022/02/06 00:17:12;;;;;;;2.67;1.23;;;4.80;99.90;;;;;;4990357;28;20215;-78
2022/02/06 00:19:41;;;;;;;3.93;1.27;;;4.80;99.90;;;;;;4990348;28;20188;-77
2022/02/06 00:22:09;;;;;;;1.90;1.00;;;4.70;99.90;;;;;;4989713;28;20187;-76
2022/02/06 00:24:45;;;;;;;1.47;0.73;;;4.70;99.90;;;;;;4987915;28;21242;-77
2022/02/06 00:27:23;;;;;;;2.40;0.83;;;4.60;99.90;;;;;;4969716;28;20208;-75
2022/02/06 00:30:04;;;;;;;2.50;1.00;;;4.60;99.90;;;;;;4985732;28;20187;-77
2022/02/06 00:32:39;;;;;;;1.70;0.93;;;4.60;99.90;;;;;;4985007;28;20176;-77
2022/02/06 00:35:21;;;;;;;1.70;0.90;;;4.50;99.90;;;;;;4990917;28;20677;-77
2022/02/06 00:38:12;;;;;;;2.23;0.63;;;4.60;99.90;;;;;;4975221;28;20749;-78
2022/02/06 00:43:24;;;;;;;1.77;1.23;;;4.50;99.90;;;;;;4992798;28;20191;-78
2022/02/06 00:45:50;;;;;;;3.17;1.03;;;4.50;99.90;;;;;;4971352;28;20192;-77
2022/02/06 00:48:21;;;;;;;4.33;0.90;;;4.50;99.90;;;;;;4971185;28;20273;-77
2022/02/06 00:50:51;;;;;;;1.13;0.80;;;4.50;99.90;;;;;;4972443;28;20650;-76
2022/02/06 00:53:18;;;;;;;1.63;0.80;;;4.50;99.90;;;;;;4968321;28;20188;-79
2022/02/06 00:55:46;;;;;;;0.93;0.83;;;4.50;99.90;;;;;;4972441;28;20184;-77
2022/02/06 00:58:12;;;;;;;1.40;0.80;;;4.50;99.90;;;;;;4989028;28;20223;-77
2022/02/06 01:00:38;;;;;;;1.80;0.80;;;4.50;99.90;;;;;;4970864;28;20662;-77
2022/02/06 01:03:04;;;;;;;2.83;0.87;;;4.50;99.90;;;;;;4971255;28;20650;-77
2022/02/06 01:05:29;;;;;;;2.27;0.87;;;4.50;99.90;;;;;;4988033;28;20651;-77
2022/02/06 01:07:55;;;;;;;2.20;1.00;;;4.50;99.90;;;;;;4970721;28;20208;-77
2022/02/06 01:10:23;;;;;;;1.30;0.73;;;4.50;99.90;;;;;;4970374;28;20765;-77
2022/02/06 01:12:58;;;;;;;2.33;0.90;;;4.40;99.90;;;;;;4987605;28;20506;-77
2022/02/06 01:15:29;;;;;;;1.43;0.90;;;4.50;99.90;;;;;;5002836;28;20194;-77
2022/02/06 01:20:30;;;;;;;1.53;0.63;;;4.60;99.90;;;;;;5001771;28;20188;-77
2022/02/06 01:23:02;;;;;;;1.47;0.80;;;4.50;99.90;;;;;;4991396;28;20180;-77
2022/02/06 01:25:40;;;;;;;1.33;0.80;;;4.50;99.90;;;;;;4995479;28;20411;-78
2022/02/06 01:28:11;;;;;;;0.87;0.70;;;4.50;99.90;;;;;;4991009;28;20227;-77
2022/02/06 01:33:14;;;;;;;1.43;0.63;;;4.50;99.90;;;;;;4990236;28;20252;-77
2022/02/06 01:35:53;;;;;;;2.10;0.83;;;4.50;99.90;;;;;;4972108;28;20216;-77
2022/02/06 01:41:09;;;;;;;1.20;0.67;;;4.50;99.90;;;;;;4989769;28;20188;-77
2022/02/06 01:43:43;;;;;;;1.37;0.83;;;4.50;99.90;;;;;;4971814;28;20262;-76
2022/02/06 01:46:21;;;;;;;0.97;0.60;;;4.60;99.90;;;;;;4971714;28;20211;-77
2022/02/06 02:29:28;;;;;;;1.00;0.90;;;4.70;99.90;;;;;;4992313;28;20199;-78
2022/02/06 02:48:19;;;;;;;1.33;0.70;;;4.70;99.90;;;;;;4990225;28;20211;-76
2022/02/06 02:50:52;;;;;;;3.13;1.00;;;4.70;99.90;;;;;;4972828;28;20187;-77
2022/02/06 02:59:04;;;;;;;1.10;0.57;;;4.70;99.90;;;;;;4971997;28;20217;-77
2022/02/06 03:01:36;;;;;;;1.10;0.73;;;4.70;99.90;;;;;;4990397;28;20228;-77
2022/02/06 03:04:02;;;;;;;1.47;1.00;;;4.70;99.90;;;;;;4973127;28;20196;-77
2022/02/06 03:06:28;;;;;;;1.00;0.60;;;4.80;99.90;;;;;;4972954;28;20592;-76
2022/02/06 03:08:55;;;;;;;1.07;0.50;;;4.70;99.90;;;;;;4989072;28;20705;-76
2022/02/06 03:11:21;;;;;;;1.20;0.83;;;4.80;99.90;;;;;;4988792;28;20188;-77
2022/02/06 03:14:02;;;;;;;1.70;0.70;;;4.80;99.90;;;;;;4973040;28;20619;-77
2022/02/06 03:16:33;;;;;;;1.40;0.70;;;4.80;99.90;;;;;;4989881;28;20207;-77
2022/02/06 03:21:32;;;;;;;1.87;0.70;;;4.90;99.90;;;;;;4989605;28;20268;-77
2022/02/06 03:24:09;;;;;;;2.93;0.80;;;4.90;99.90;;;;;;4972240;28;20202;-77
2022/02/06 03:26:35;;;;;;;1.03;0.60;;;4.90;99.90;;;;;;4972734;28;20180;-77
2022/02/06 03:29:00;;;;;;;0.83;0.60;;;4.90;99.90;;;;;;4972421;28;20199;-77
2022/02/06 03:31:26;;;;;;;2.77;0.67;;;4.90;99.90;;;;;;4971933;28;20188;-77
2022/02/06 03:33:52;;;;;;;1.70;0.63;;;5.00;99.90;;;;;;4988597;28;21223;-77
2022/02/06 03:36:19;;;;;;;1.90;0.60;;;5.00;99.90;;;;;;4989580;28;20188;-76
2022/02/06 03:38:46;;;;;;;2.17;0.90;;;5.00;99.90;;;;;;4972570;28;20311;-76
2022/02/06 03:41:13;;;;;;;0.50;0.50;;;4.90;99.90;;;;;;4971983;28;20195;-77
2022/02/06 03:46:26;;;;;;;0.83;0.50;;;5.00;99.90;;;;;;4989538;28;20196;-78
2022/02/06 03:49:01;;;;;;;1.73;1.20;;;5.00;99.90;;;;;;4971718;28;20196;-79
2022/02/06 03:51:35;;;;;;;1.00;0.60;;;5.00;99.90;;;;;;4987842;28;20562;-77
2022/02/06 03:54:02;;;;;;;0.70;0.60;;;5.00;99.90;;;;;;4990160;28;20200;-77
2022/02/06 03:56:29;;;;;;;2.10;0.60;;;5.10;99.90;;;;;;4972555;28;20749;-77
2022/02/06 03:58:56;;;;;;;1.30;0.60;;;5.10;99.90;;;;;;4989838;28;20675;-77
2022/02/06 04:01:21;;;;;;;0.50;0.50;;;5.00;99.90;;;;;;4990178;28;20203;-77
2022/02/06 04:03:47;;;;;;;0.63;0.50;;;5.10;99.90;;;;;;4989012;28;20543;-77
2022/02/06 04:06:13;;;;;;;0.53;0.43;;;5.00;99.90;;;;;;4972948;28;20580;-76
2022/02/06 04:08:40;;;;;;;1.27;0.60;;;5.10;99.90;;;;;;4990789;28;20606;-77
2022/02/06 04:11:12;;;;;;;0.63;0.60;;;5.00;99.90;;;;;;4990109;28;20177;-77
2022/02/06 04:13:52;;;;;;;1.17;0.70;;;5.00;99.90;;;;;;4991062;28;20308;-77
2022/02/06 04:16:25;;;;;;;1.17;0.60;;;5.00;99.90;;;;;;4974050;28;20267;-76
2022/02/06 04:19:00;;;;;;;1.13;0.40;;;5.00;99.90;;;;;;4972566;28;20618;-77
2022/02/06 04:21:26;;;;;;;0.77;0.50;;;5.00;99.90;;;;;;4971333;28;20204;-76
2022/02/06 04:23:51;;;;;;;0.30;0.30;;;5.00;99.90;;;;;;4988637;28;20273;-76
2022/02/06 04:26:17;;;;;;;1.37;0.40;;;5.00;99.90;;;;;;4970381;28;20184;-76
2022/02/06 04:28:42;;;;;;;0.30;0.30;;;5.00;99.90;;;;;;4986118;28;20319;-75
2022/02/06 04:31:08;;;;;;;0.50;0.43;;;5.00;99.90;;;;;;4985051;28;20188;-75
2022/02/06 04:33:33;;;;;;;0.70;0.50;;;5.00;99.90;;;;;;4970456;28;20196;-76
2022/02/06 04:36:01;;;;;;;0.47;0.40;;;5.00;99.90;;;;;;4991690;28;20188;-80
2022/02/06 04:51:59;;;;;;;0.33;0.33;;;5.10;99.90;;;;;;4990551;28;20195;-77
2022/02/06 04:54:39;;;;;;;0.40;0.40;;;5.10;99.90;;;;;;4990211;28;21092;-79
2022/02/06 05:19:09;;;;;;;0.90;0.47;;;5.10;99.90;;;;;;4989979;28;20212;-78
2022/02/06 05:21:45;;;;;;;0.47;0.47;;;5.10;99.90;;;;;;4989668;28;20694;-75
2022/02/06 05:24:37;;;;;;;1.50;0.40;;;5.10;99.90;;;;;;4989881;28;20227;-77
2022/02/06 05:29:43;;;;;;;0.40;0.40;;;5.10;99.90;;;;;;4989947;28;20185;-76
2022/02/06 05:34:43;;;;;;;0.40;0.40;;;5.10;99.90;;;;;;4989602;28;20204;-80
2022/02/06 05:37:09;;;;;;;0.70;0.40;;;5.10;99.90;;;;;;4988745;28;20239;-78
2022/02/06 05:39:34;;;;;;;0.33;0.33;;;5.20;99.90;;;;;;4989551;28;20643;-79
2022/02/06 05:42:00;;;;;;;0.30;0.30;;;5.20;99.90;;;;;;4989092;28;20675;-75
2022/02/06 05:44:26;;;;;;;0.47;0.47;;;5.20;99.90;;;;;;4989458;28;20701;-79
2022/02/06 05:46:51;;;;;;;0.30;0.30;;;5.20;99.90;;;;;;4993292;28;20227;-79
2022/02/06 05:49:17;;;;;;;0.30;0.30;;;5.20;99.90;;;;;;4993818;28;20188;-79
2022/02/06 05:51:44;;;;;;;0.30;0.30;;;5.20;99.90;;;;;;4975386;28;20232;-77
2022/02/06 05:54:10;;;;;;;1.17;0.40;;;5.20;99.90;;;;;;4993313;28;20184;-76
2022/02/06 05:56:36;;;;;;;0.30;0.30;;;5.20;99.90;;;;;;4992479;28;20287;-78
2022/02/06 05:59:03;;;;;;;0.40;0.30;;;5.20;99.90;;;;;;4976239;28;20189;-75
2022/02/06 06:01:29;;;;;;;1.13;0.40;;;5.20;99.90;;;;;;4993621;28;20291;-79
2022/02/06 06:03:54;;;;;;;1.60;0.40;;;5.20;99.90;;;;;;4992505;28;20212;-78
2022/02/06 06:06:20;;;;;;;0.83;0.40;;;5.20;99.90;;;;;;4993450;28;20185;-77
2022/02/06 06:08:45;;;;;;;0.40;0.40;;;5.20;99.90;;;;;;4975329;28;20208;-80
2022/02/06 06:11:11;;;;;;;1.17;0.40;;;5.20;99.90;;;;;;4992516;28;20198;-81
2022/02/06 06:13:36;;;;;;;0.80;0.50;;;5.30;99.90;;;;;;4992810;28;20184;-76
2022/02/06 06:16:04;;;;;;;0.77;0.60;;;5.20;99.90;;;;;;4992594;28;20271;-76
2022/02/06 06:18:30;;;;;;;0.33;0.20;;;5.30;99.90;;;;;;4992416;28;20195;-78
2022/02/06 06:20:56;;;;;;;0.77;0.50;;;5.30;99.90;;;;;;4992514;28;20708;-76
2022/02/06 06:23:24;;;;;;;0.30;0.30;;;5.30;99.90;;;;;;4992530;28;20196;-78
2022/02/06 06:25:51;;;;;;;0.20;0.20;;;5.30;99.90;;;;;;4992167;28;20180;-78
2022/02/06 06:28:17;;;;;;;0.50;0.40;;;5.30;99.90;;;;;;4991176;28;20228;-78
2022/02/06 06:30:43;;;;;;;0.47;0.40;;;5.30;99.90;;;;;;4993389;28;20192;-76
2022/02/06 06:33:08;;;;;;;0.30;0.30;;;5.30;99.90;;;;;;4993151;28;20184;-79
2022/02/06 06:35:34;;;;;;;2.13;0.40;;;5.30;99.90;;;;;;4975637;28;20195;-82
2022/02/06 06:38:00;;;;;;;0.93;0.40;;;5.40;99.90;;;;;;4974899;28;20243;-79
2022/02/06 06:40:29;;;;;;;0.60;0.33;;;5.40;99.90;;;;;;4992500;28;20188;-81
2022/02/06 06:42:56;;;;;;;0.47;0.27;;;5.40;99.90;;;;;;4993067;28;20275;-77
2022/02/06 06:45:22;;;;;;;0.83;0.40;;;5.40;99.90;;;;;;4992118;28;20184;-76
2022/02/06 06:47:56;;;;;;;0.53;0.40;;;5.40;99.90;;;;;;4974757;28;21212;-78
2022/02/06 06:50:31;;;;;;;0.23;0.20;;;5.40;99.90;;;;;;4992585;28;20203;-78
2022/02/06 06:52:56;;;;;;;0.70;0.30;;;5.40;99.90;;;;;;4992821;28;20184;-77
2022/02/06 06:55:22;;;;;;;0.40;0.40;;;5.40;99.90;;;;;;4992614;28;20203;-78
2022/02/06 06:57:57;;;;;;;0.67;0.40;;;5.40;99.90;;;;;;4991186;28;20741;-75
2022/02/06 07:00:36;;;;;;;0.57;0.40;;;5.50;99.90;;;;;;4975029;28;20186;-80
2022/02/06 07:03:02;;;;;;;0.30;0.30;;;5.40;99.90;;;;;;4991883;28;20807;-80
2022/02/06 07:05:27;;;;;;;0.20;0.20;;;5.50;99.90;;;;;;4991770;28;20184;-75
2022/02/06 07:07:55;;;;;;;0.73;0.37;;;5.50;99.90;;;;;;4974824;28;20231;-79
2022/02/06 07:10:21;;;;;;;0.47;0.37;;;5.50;99.90;;;;;;4991662;28;20649;-81
2022/02/06 07:12:46;;;;;;;0.43;0.33;;;5.50;99.90;;;;;;4974884;28;20246;-77
2022/02/06 07:15:12;;;;;;;1.23;0.40;;;5.50;99.90;;;;;;4974438;28;20196;-78
2022/02/06 07:17:37;;;;;;;0.33;0.33;;;5.50;99.90;;;;;;4991711;28;20219;-77
2022/02/06 07:20:04;;;;;;;0.23;0.20;;;5.50;99.90;;;;;;4973663;28;20193;-79
2022/02/06 07:22:34;;;;;;;0.43;0.40;;;5.50;99.90;;;;;;4992383;28;20271;-79
2022/02/06 07:25:00;;;;;;;0.43;0.27;;;5.60;99.90;;;;;;4992274;28;20180;-80
2022/02/06 07:27:30;;;;;;;1.30;0.30;;;5.60;99.90;;;;;;4991625;28;20247;-79
2022/02/06 07:29:57;;;;;;;0.40;0.30;;;5.60;99.90;;;;;;4991200;28;20191;-78
2022/02/06 07:32:23;;;;;;;0.40;0.40;;;5.60;99.90;;;;;;4991711;28;20295;-78
2022/02/06 07:34:49;;;;;;;0.30;0.30;;;5.70;99.90;;;;;;4992183;28;20177;-79
2022/02/06 07:37:15;;;;;;;0.40;0.30;;;5.60;99.90;;;;;;4973832;28;20224;-79
2022/02/06 07:39:41;;;;;;;0.60;0.30;;;5.60;99.90;;;;;;4992775;28;20184;-79
2022/02/06 07:42:09;;;;;;;1.20;0.37;;;5.60;99.90;;;;;;4974900;28;20295;-80
2022/02/06 07:44:36;;;;;;;0.30;0.30;;;5.60;99.90;;;;;;4990197;28;20187;-78
2022/02/06 07:47:12;;;;;;;0.77;0.20;;;5.60;99.90;;;;;;4991299;28;20216;-78
2022/02/06 07:49:38;;;;;;;1.57;0.37;;;5.70;99.90;;;;;;5004223;28;20248;-79
2022/02/06 07:52:03;;;;;;;0.20;0.20;;;5.70;99.90;;;;;;4972128;28;20279;-78
2022/02/06 07:54:30;;;;;;;0.30;0.30;;;5.70;99.90;;;;;;4971614;28;20188;-78
2022/02/06 07:56:55;;;;;;;1.17;0.40;;;5.70;99.90;;;;;;4989278;28;20641;-82
2022/02/06 07:59:21;;;;;;;0.87;0.30;;;5.70;99.90;;;;;;4971638;28;20207;-78
2022/02/06 08:01:47;;;;;;;0.53;0.30;;;5.70;99.90;;;;;;4989125;28;20263;-78
2022/02/06 08:04:12;;;;;;;0.33;0.30;;;5.70;99.90;;;;;;4987228;28;20180;-77
2022/02/06 08:06:38;;;;;;;0.30;0.30;;;5.80;99.90;;;;;;4970691;28;20184;-81
2022/02/06 08:09:04;;;;;;;0.20;0.20;;;5.70;99.90;;;;;;4985952;28;20196;-78
2022/02/06 08:11:34;;;;;;;0.20;0.20;;;5.80;99.90;;;;;;4987668;28;20184;-76
2022/02/06 08:14:00;;;;;;;0.63;0.30;;;5.80;99.90;;;;;;4986037;28;20927;-78
2022/02/06 08:16:26;;;;;;;0.63;0.20;;;5.80;99.90;;;;;;4985444;28;20196;-77
2022/02/06 08:18:51;;;;;;;0.37;0.37;;;5.80;99.90;;;;;;4984736;28;20243;-75
2022/02/06 08:21:18;;;;;;;0.20;0.20;;;5.80;99.90;;;;;;4983718;28;20633;-76
2022/02/06 08:23:44;;;;;;;0.70;0.60;;;5.80;99.90;;;;;;4982565;28;20207;-75
2022/02/06 08:26:10;;;;;;;0.33;0.20;;;5.80;99.90;;;;;;4987513;28;20184;-78
2022/02/06 08:28:37;;;;;;;0.30;0.30;;;5.80;99.90;;;;;;4988016;28;20196;-79
2022/02/06 08:31:04;;;;;;;0.70;0.40;;;5.90;99.90;;;;;;4987472;28;20199;-75
2022/02/06 08:33:29;;;;;;;0.40;0.30;;;6.00;99.90;;;;;;4971257;28;20324;-80
2022/02/06 08:35:57;;;;;;;0.20;0.20;;;6.10;99.90;;;;;;4983859;28;20267;-77
2022/02/06 08:38:23;;;;;;;0.63;0.30;;;6.20;99.90;;;;;;4966145;28;20294;-78
2022/02/06 08:40:49;;;;;;;0.20;0.20;;;6.30;99.90;;;;;;4983693;28;20172;-78
2022/02/06 08:43:14;;;;;;;0.20;0.20;;;6.30;99.90;;;;;;4984268;28;21031;-77
2022/02/06 08:45:40;;;;;;;1.07;1.00;;;6.30;99.90;;;;;;4984127;28;20246;-78
2022/02/06 08:48:06;;;;;;;0.33;0.30;;;6.30;99.90;;;;;;4984996;28;20247;-77
2022/02/06 08:50:33;;;;;;;0.30;0.30;;;6.30;99.90;;;;;;4984617;28;21100;-77
2022/02/06 08:52:59;;;;;;;0.30;0.30;;;6.30;99.90;;;;;;4985102;28;20307;-77
2022/02/06 08:55:27;;;;;;;0.30;0.20;;;6.40;99.90;;;;;;4967100;28;20219;-77
2022/02/06 08:57:53;;;;;;;0.67;0.33;;;6.50;99.90;;;;;;4986918;28;20208;-80
2022/02/06 09:00:21;;;;;;;0.30;0.30;;;6.60;99.90;;;;;;4985418;28;20188;-78
2022/02/06 09:02:48;;;;;;;0.20;0.20;;;6.70;99.90;;;;;;4980650;28;20263;-78
2022/02/06 09:05:14;;;;;;;0.40;0.30;;;6.70;99.90;;;;;;4982711;28;20512;-77
2022/02/06 09:07:42;;;;;;;1.67;0.37;;;6.70;99.90;;;;;;4983972;28;20204;-78
2022/02/06 09:10:09;;;;;;;1.23;0.77;;;6.90;99.90;;;;;;4982561;28;20650;-77
2022/02/06 09:12:39;;;;;;;0.47;0.40;;;6.80;99.90;;;;;;4983177;28;20222;-79
2022/02/06 09:15:05;;;;;;;0.93;0.37;;;6.70;99.90;;;;;;4982817;28;20196;-78
2022/02/06 09:17:31;;;;;;;0.43;0.43;;;6.70;99.90;;;;;;4983158;28;20236;-77
2022/02/06 09:19:57;;;;;;;0.87;0.43;;;6.70;99.90;;;;;;4983628;28;20227;-76
2022/02/06 09:22:22;;;;;;;0.50;0.43;;;6.60;99.90;;;;;;4988044;28;20184;-77
2022/02/06 09:24:48;;;;;;;0.20;0.20;;;6.70;99.90;;;;;;4987012;28;20188;-77
2022/02/06 09:27:13;;;;;;;0.33;0.33;;;6.70;99.90;;;;;;4987485;28;20706;-77
2022/02/06 09:29:40;;;;;;;0.70;0.30;;;6.80;99.90;;;;;;4987257;28;20230;-79
2022/02/06 09:37:05;;;;;;;1.13;0.40;;;6.90;99.90;;;;;;4988101;28;20310;-79
2022/02/06 09:39:34;;;;;;;0.40;0.40;;;7.00;99.90;;;;;;4970067;28;20172;-79
2022/02/06 09:42:00;;;;;;;1.13;0.40;;;7.00;99.90;;;;;;4987282;28;20176;-79
2022/02/06 09:44:29;;;;;;;0.80;0.40;;;7.00;99.90;;;;;;4986359;28;20194;-79
2022/02/06 09:46:58;;;;;;;0.40;0.40;;;7.00;99.90;;;;;;4987196;28;20300;-76
2022/02/06 09:49:26;;;;;;;0.50;0.30;;;7.10;99.90;;;;;;4987190;28;20424;-76
2022/02/06 09:51:53;;;;;;;0.60;0.20;;;7.30;99.90;;;;;;4967556;28;20493;-78
2022/02/06 09:54:20;;;;;;;0.40;0.30;;;7.40;99.90;;;;;;4984095;28;20184;-77
2022/02/06 09:56:50;;;;;;;0.33;0.30;;;7.40;99.90;;;;;;4985043;28;20258;-77
2022/02/06 09:59:20;;;;;;;0.40;0.30;;;7.50;99.90;;;;;;4981492;28;20188;-76
2022/02/06 10:01:48;;;;;;;0.30;0.30;;;7.50;99.90;;;;;;4985218;28;20176;-79
2022/02/06 10:04:19;;;;;;;0.20;0.20;;;7.50;99.90;;;;;;4983615;28;20191;-77
2022/02/06 10:06:50;;;;;;;0.30;0.30;;;7.50;99.90;;;;;;4985311;28;20254;-79
2022/02/06 10:09:25;;;;;;;0.20;0.20;;;7.60;99.90;;;;;;4967433;28;20192;-79
2022/02/06 10:11:55;;;;;;;0.30;0.30;;;7.70;99.90;;;;;;4985278;28;20191;-78
2022/02/06 10:14:20;;;;;;;0.63;0.37;;;7.70;99.90;;;;;;4985051;28;20181;-77
2022/02/06 10:16:48;;;;;;;0.70;0.50;;;7.50;99.90;;;;;;4988300;28;20208;-77
2022/02/06 10:19:16;;;;;;;0.20;0.20;;;7.50;99.90;;;;;;4986752;28;20311;-76
2022/02/06 10:21:43;;;;;;;0.43;0.30;;;7.50;99.90;;;;;;4987900;28;20263;-77
2022/02/06 10:24:18;;;;;;;0.53;0.30;;;7.40;99.90;;;;;;4987817;28;20279;-76
2022/02/06 10:27:04;;;;;;;0.30;0.30;;;7.40;99.90;;;;;;4986024;28;20225;-77
2022/02/06 10:29:38;;;;;;;0.20;0.20;;;7.50;99.90;;;;;;4985614;28;20976;-77
2022/02/06 10:32:22;;;;;;;0.30;0.30;;;7.50;99.90;;;;;;4988989;28;20182;-78
2022/02/06 10:34:48;;;;;;;0.70;0.50;;;7.50;99.90;;;;;;4969608;28;20184;-78
2022/02/06 10:37:19;;;;;;;0.20;0.20;;;7.40;99.90;;;;;;4970306;28;20223;-78
2022/02/06 10:40:03;;;;;;;0.30;0.20;;;7.40;99.90;;;;;;4969827;28;20596;-78
2022/02/06 10:42:39;;;;;;;0.20;0.20;;;7.40;99.90;;;;;;4987676;28;20172;-77
2022/02/06 10:45:15;;;;;;;0.23;0.23;;;7.40;99.90;;;;;;4988434;28;20643;-78
2022/02/06 10:47:42;;;;;;;0.20;0.20;;;7.40;99.90;;;;;;4988478;28;20207;-80
2022/02/06 10:50:14;;;;;;;0.60;0.30;;;7.40;99.90;;;;;;4987286;28;20777;-79
2022/02/06 10:52:40;;;;;;;0.30;0.30;;;7.40;99.90;;;;;;4989488;28;20226;-77
2022/02/06 10:55:07;;;;;;;0.20;0.20;;;7.40;99.90;;;;;;4970244;28;20203;-79
2022/02/06 10:57:35;;;;;;;0.20;0.20;;;7.50;99.90;;;;;;4986101;28;20718;-79
2022/02/06 11:00:03;;;;;;;0.20;0.20;;;7.50;99.90;;;;;;4985831;28;21286;-76
2022/02/06 11:02:44;;;;;;;0.20;0.20;;;7.50;99.90;;;;;;4987644;28;20219;-77
2022/02/06 11:05:22;;;;;;;0.20;0.20;;;7.50;99.90;;;;;;4986164;28;20195;-77
2022/02/06 11:08:01;;;;;;;0.50;0.30;;;7.50;99.90;;;;;;4969480;28;20227;-77
2022/02/06 11:10:30;;;;;;;0.30;0.30;;;7.50;99.90;;;;;;4987974;28;20575;-80
2022/02/06 11:13:05;;;;;;;0.67;0.20;;;7.60;99.90;;;;;;4986099;28;20176;-78
2022/02/06 11:15:38;;;;;;;0.80;0.30;;;7.60;99.90;;;;;;4984532;28;20231;-77
2022/02/06 11:18:15;;;;;;;0.30;0.30;;;7.70;99.90;;;;;;4968776;28;20212;-80
2022/02/06 11:20:56;;;;;;;0.20;0.20;;;7.80;99.90;;;;;;4985842;28;20256;-78
2022/02/06 11:23:23;;;;;;;8.10;5.40;;;7.70;99.90;;;;;;4986308;28;20191;-79
2022/02/06 11:25:51;;;;;;;1.53;0.97;;;7.70;99.90;;;;;;4986790;28;20169;-77
2022/02/06 11:28:17;;;;;;;0.30;0.30;;;7.70;99.90;;;;;;4986287;28;21261;-79
2022/02/06 11:30:45;;;;;;;0.47;0.40;;;7.70;99.90;;;;;;4987232;28;20211;-79
2022/02/06 11:33:11;;;;;;;0.40;0.40;;;7.60;99.90;;;;;;4986560;28;20301;-77
2022/02/06 11:35:39;;;;;;;0.30;0.30;;;7.60;99.90;;;;;;4986254;28;20746;-79
2022/02/06 11:44:31;;;;;;;0.30;0.30;;;7.60;99.90;;;;;;4986692;28;20180;-78
2022/02/06 11:47:11;;;;;;;1.37;0.40;;;7.60;99.90;;;;;;4986173;28;20237;-78
2022/02/06 11:49:47;;;;;;;0.60;0.33;;;7.60;99.90;;;;;;4968631;28;20270;-78
2022/02/06 11:52:14;;;;;;;0.70;0.53;;;7.60;99.90;;;;;;4985996;28;20184;-79
2022/02/06 11:54:52;;;;;;;1.00;0.90;;;7.70;99.90;;;;;;4985686;28;20180;-78
2022/02/06 11:57:25;;;;;;;1.80;1.60;;;7.70;99.90;;;;;;4967402;28;20694;-75
2022/02/06 12:00:06;;;;;;;0.60;0.60;;;7.80;99.90;;;;;;4983387;28;20195;-76
2022/02/06 12:02:39;;;;;;;0.30;0.30;;;7.80;99.90;;;;;;4985732;28;20200;-78
2022/02/06 12:05:19;;;;;;;0.33;0.30;;;7.80;99.90;;;;;;4985310;28;20291;-78
2022/02/06 12:08:10;;;;;;;0.33;0.33;;;7.80;99.90;;;;;;4986186;28;20223;-78
2022/02/06 12:10:35;;;;;;;0.60;0.40;;;7.80;99.90;;;;;;4985598;28;20172;-77
2022/02/06 12:15:55;;;;;;;0.60;0.50;;;7.80;99.90;;;;;;4986999;28;20188;-78
2022/02/06 12:18:27;;;;;;;0.30;0.30;;;7.80;99.90;;;;;;4986254;28;20215;-78
2022/02/06 12:20:56;;;;;;;0.27;0.27;;;7.80;99.90;;;;;;4985892;28;20259;-78
2022/02/06 12:23:44;;;;;;;0.20;0.20;;;7.70;99.90;;;;;;4985549;28;20182;-77
2022/02/06 12:26:30;;;;;;;0.20;0.20;;;7.70;99.90;;;;;;4967597;28;20274;-78
2022/02/06 12:29:13;;;;;;;0.30;0.20;;;7.70;99.90;;;;;;4986086;28;20217;-78
2022/02/06 12:31:52;;;;;;;0.30;0.30;;;7.70;99.90;;;;;;4985643;28;20240;-78
2022/02/06 12:37:28;;;;;;;0.60;0.60;;;7.70;99.90;;;;;;4985456;28;20277;-78
2022/02/06 12:40:03;;;;;;;0.30;0.30;;;7.60;99.90;;;;;;4982896;28;20180;-77
2022/02/06 12:42:32;;;;;;;0.93;0.80;;;7.60;99.90;;;;;;4982939;28;20263;-77
2022/02/06 12:44:59;;;;;;;0.47;0.40;;;7.50;99.90;;;;;;4983652;28;20230;-78
2022/02/06 12:47:27;;;;;;;0.33;0.30;;;7.50;99.90;;;;;;4967149;28;20282;-77
2022/02/06 12:49:53;;;;;;;0.20;0.20;;;7.40;99.90;;;;;;4984979;28;20188;-78
2022/02/06 12:52:18;;;;;;;0.90;0.20;;;7.30;99.90;;;;;;4985825;28;20561;-77
2022/02/06 12:54:44;;;;;;;0.30;0.30;;;7.30;99.90;;;;;;4983834;28;20652;-78
2022/02/06 12:57:10;;;;;;;1.23;0.30;;;7.30;99.90;;;;;;4985828;28;20215;-78
2022/02/06 12:59:38;;;;;;;1.73;1.27;;;7.30;99.90;;;;;;4985123;28;20194;-77
2022/02/06 13:02:06;;;;;;;1.57;1.27;;;7.30;99.90;;;;;;4986433;28;20211;-78
2022/02/06 13:04:39;;;;;;;0.40;0.40;;;7.30;99.90;;;;;;4984459;28;20936;-78
2022/02/06 13:07:06;;;;;;;0.40;0.40;;;7.20;99.90;;;;;;4983627;28;20208;-78
2022/02/06 13:09:43;;;;;;;0.40;0.40;;;7.10;99.90;;;;;;4978909;28;20250;-77
2022/02/06 13:12:31;;;;;;;0.20;0.20;;;7.10;99.90;;;;;;4965331;28;20182;-77
2022/02/06 13:17:54;;;;;;;1.40;0.70;;;7.00;99.90;;;;;;4983914;28;20224;-77
2022/02/06 13:20:37;;;;;;;0.40;0.40;;;6.90;99.90;;;;;;4983202;28;20180;-77
2022/02/06 13:23:20;;;;;;;0.20;0.20;;;6.80;99.90;;;;;;4966781;28;20198;-79
2022/02/06 13:28:37;;;;;;;0.37;0.30;;;6.80;99.90;;;;;;4984433;28;20589;-80
2022/02/06 13:33:57;;;;;;;0.30;0.30;;;6.80;99.90;;;;;;4984690;28;20172;-78
2022/02/06 13:36:40;;;;;;;0.53;0.20;;;6.70;99.90;;;;;;4981624;28;20188;-78
2022/02/06 13:39:14;;;;;;;0.40;0.40;;;6.70;99.90;;;;;;4963650;28;20246;-78
2022/02/06 13:41:40;;;;;;;0.80;0.30;;;6.70;99.90;;;;;;4982488;28;20194;-77
2022/02/06 13:44:14;;;;;;;0.40;0.20;;;6.60;99.90;;;;;;4986949;28;20192;-79
2022/02/06 13:46:42;;;;;;;0.30;0.30;;;6.60;99.90;;;;;;4983710;28;20199;-77
2022/02/06 13:49:08;;;;;;;0.30;0.30;;;6.60;99.90;;;;;;4984956;28;20180;-80
2022/02/06 13:51:44;;;;;;;0.33;0.33;;;6.60;99.90;;;;;;4965906;28;20188;-77
2022/02/06 13:54:10;;;;;;;0.30;0.30;;;6.60;99.90;;;;;;4981511;28;20187;-79
2022/02/06 13:56:37;;;;;;;0.60;0.60;;;6.60;99.90;;;;;;4983774;28;20211;-78
2022/02/06 13:59:11;;;;;;;0.20;0.20;;;6.60;99.90;;;;;;4980211;28;20188;-78
2022/02/06 14:01:43;;;;;;;0.47;0.47;;;6.60;99.90;;;;;;4979902;28;20184;-79
2022/02/06 14:04:32;;;;;;;0.30;0.30;;;6.50;99.90;;;;;;4980391;28;20189;-79
2022/02/06 14:07:17;;;;;;;0.50;0.50;;;6.60;99.90;;;;;;4985036;28;20686;-79
2022/02/06 14:09:49;;;;;;;0.37;0.37;;;6.50;99.90;;;;;;4987365;28;20256;-79
2022/02/06 14:12:20;;;;;;;0.40;0.40;;;6.60;99.90;;;;;;4965715;28;20192;-76
2022/02/06 14:14:56;;;;;;;0.30;0.30;;;6.50;99.90;;;;;;4983505;28;20184;-79
2022/02/06 14:17:27;;;;;;;0.50;0.30;;;6.50;99.90;;;;;;4983327;28;20224;-79
2022/02/06 14:19:56;;;;;;;0.30;0.30;;;6.50;99.90;;;;;;4984391;28;20192;-78
2022/02/06 14:22:36;;;;;;;0.30;0.20;;;6.40;99.90;;;;;;4983893;28;20271;-76
2022/02/06 14:25:07;;;;;;;0.30;0.30;;;6.40;99.90;;;;;;4965178;28;20223;-78
2022/02/06 14:27:39;;;;;;;0.40;0.40;;;6.40;99.90;;;;;;4984174;28;20208;-78
2022/02/06 14:30:35;;;;;;;0.60;0.60;;;6.40;99.90;;;;;;4983759;28;20227;-77
2022/02/06 14:33:05;;;;;;;0.80;0.80;;;6.40;99.90;;;;;;4950203;28;20197;-77
2022/02/06 14:35:40;;;;;;;0.40;0.40;;;6.40;99.90;;;;;;4982672;28;20187;-79
2022/02/06 14:38:08;;;;;;;0.30;0.30;;;6.40;99.90;;;;;;4982584;28;20219;-77
2022/02/06 14:40:51;;;;;;;0.30;0.30;;;6.40;99.90;;;;;;4966119;28;20195;-76
2022/02/06 14:43:38;;;;;;;0.20;0.20;;;6.30;99.90;;;;;;4983161;28;20710;-77
2022/02/06 14:46:04;;;;;;;0.60;0.33;;;6.40;99.90;;;;;;4988753;28;20203;-78
2022/02/06 14:48:29;;;;;;;0.30;0.30;;;6.30;99.90;;;;;;4988771;28;20292;-78
2022/02/06 14:50:55;;;;;;;0.27;0.27;;;6.30;99.90;;;;;;4989054;28;20302;-78
2022/02/06 14:53:22;;;;;;;1.63;1.40;;;6.30;99.90;;;;;;4987801;28;20223;-78
2022/02/06 14:55:53;;;;;;;0.50;0.50;;;6.20;99.90;;;;;;4984197;28;20243;-78
2022/02/06 14:58:19;;;;;;;0.70;0.50;;;6.20;99.90;;;;;;4965853;28;20244;-79
2022/02/06 15:00:45;;;;;;;0.40;0.40;;;6.20;99.90;;;;;;4983669;28;20189;-77
2022/02/06 15:03:11;;;;;;;0.20;0.20;;;6.20;99.90;;;;;;4984554;28;20497;-77
2022/02/06 15:05:38;;;;;;;1.60;0.50;;;6.20;99.90;;;;;;4983405;28;20184;-78
2022/02/06 15:08:04;;;;;;;0.40;0.30;;;6.20;99.90;;;;;;4983821;28;20270;-77
2022/02/06 15:10:31;;;;;;;0.30;0.30;;;6.20;99.90;;;;;;4983586;28;20180;-77
2022/02/06 15:12:57;;;;;;;0.30;0.30;;;6.20;99.90;;;;;;4983931;28;20183;-77
2022/02/06 15:15:31;;;;;;;0.87;0.20;;;6.10;99.90;;;;;;4983330;28;20400;-77
2022/02/06 15:17:58;;;;;;;0.30;0.30;;;6.10;99.90;;;;;;4982309;28;20219;-77
2022/02/06 15:20:24;;;;;;;2.00;0.93;;;6.00;99.90;;;;;;4981488;28;20187;-78
2022/02/06 15:22:49;;;;;;;1.70;0.70;;;5.80;99.90;;;;;;4968211;28;20655;-78
2022/02/06 15:25:15;;;;;;;1.27;0.57;;;5.70;99.90;;;;;;4984125;28;20193;-77
2022/02/06 15:27:40;;;;;;;2.27;0.90;;;5.50;99.90;;;;;;4984782;28;20204;-78
2022/02/06 15:30:06;;;;;;;12.20;5.13;;;5.30;99.90;;;;;;4966271;28;20210;-77
2022/02/06 15:32:32;;;;;;;2.13;1.30;;;5.10;99.90;;;;;;4967303;28;20180;-76
2022/02/06 15:34:57;;;;;;;1.23;0.73;;;5.10;99.90;;;;;;4985279;28;20187;-77